createdAt,value
2024-02-03T00:00:52.527Z,10.03
2024-02-03T00:03:39.351Z,9.13
2024-02-03T00:06:28.535Z,8.53
2024-02-03T00:09:17.628Z,8.37
2024-02-03T00:12:06.240Z,10.87
2024-02-03T00:14:53.506Z,15.17
2024-02-03T00:17:43.171Z,7.93
2024-02-03T00:20:30.087Z,9.13
2024-02-03T00:23:18.965Z,10.97
2024-02-03T00:26:07.518Z,9.93
2024-02-03T00:28:55.552Z,9.60
2024-02-03T00:31:44.658Z,7.60
2024-02-03T00:34:31.222Z,8.83
2024-02-03T00:37:18.003Z,8.43
2024-02-03T00:40:08.872Z,12.60
2024-02-03T00:42:57.255Z,9.93
2024-02-03T00:45:44.447Z,9.77
2024-02-03T00:48:31.124Z,9.87
2024-02-03T00:51:17.899Z,9.67
2024-02-03T00:54:04.943Z,12.20
2024-02-03T00:56:51.795Z,11.10
2024-02-03T00:59:40.292Z,9.27
2024-02-03T01:02:26.970Z,9.27
2024-02-03T01:05:13.828Z,9.30
2024-02-03T01:08:00.653Z,7.80
2024-02-03T01:10:47.843Z,8.20
2024-02-03T01:13:34.444Z,10.93
2024-02-03T01:16:22.931Z,9.13
2024-02-03T01:19:09.745Z,8.73
2024-02-03T01:21:56.335Z,11.57
2024-02-03T01:24:43.197Z,11.80
2024-02-03T01:27:30.094Z,11.60
2024-02-03T01:30:17.138Z,11.83
2024-02-03T01:33:05.447Z,14.60
2024-02-03T01:35:58.143Z,10.97
2024-02-03T01:38:51.957Z,10.07
2024-02-03T01:41:41.994Z,10.60
2024-02-03T01:44:32.583Z,12.23
2024-02-03T01:47:20.479Z,11.43
2024-02-03T01:50:10.238Z,9.07
2024-02-03T01:52:57.271Z,12.37
2024-02-03T01:55:44.482Z,8.90
2024-02-03T01:58:31.530Z,12.60
2024-02-03T02:01:18.205Z,10.63
2024-02-03T02:04:05.325Z,10.77
2024-02-03T02:06:53.397Z,10.63
2024-02-03T02:09:40.291Z,11.53
2024-02-03T02:12:27.218Z,11.23
2024-02-03T02:15:14.077Z,11.60
2024-02-03T02:18:01.804Z,10.47
2024-02-03T02:20:49.725Z,12.57
2024-02-03T02:23:36.340Z,10.27
2024-02-03T02:26:23.202Z,14.93
2024-02-03T02:29:09.976Z,12.63
2024-02-03T02:31:56.860Z,9.77
2024-02-03T02:34:43.923Z,13.93
2024-02-03T02:37:54.518Z,12.17
2024-02-03T02:40:43.657Z,11.13
2024-02-03T02:43:30.555Z,11.37
2024-02-03T02:46:23.124Z,12.57
2024-02-03T02:49:10.942Z,12.43
2024-02-03T02:51:57.515Z,12.47
2024-02-03T02:54:46.436Z,10.40
2024-02-03T02:57:33.370Z,9.97
2024-02-03T03:00:20.817Z,9.63
2024-02-03T03:03:07.884Z,12.37
2024-02-03T03:05:54.687Z,9.70
2024-02-03T03:08:41.718Z,9.90
2024-02-03T03:11:29.928Z,9.10
2024-02-03T03:14:16.980Z,11.23
2024-02-03T03:17:03.977Z,10.70
2024-02-03T03:19:50.962Z,10.63
2024-02-03T03:22:37.711Z,13.90
2024-02-03T03:25:24.729Z,9.63
2024-02-03T03:28:13.077Z,11.10
2024-02-03T03:31:00.128Z,11.30
2024-02-03T03:33:47.373Z,12.47
2024-02-03T03:36:33.968Z,10.07
2024-02-03T03:39:20.765Z,11.20
2024-02-03T03:42:08.187Z,14.77
2024-02-03T03:44:56.394Z,19.03
2024-02-03T03:47:43.161Z,12.80
2024-02-03T03:50:30.206Z,11.60
2024-02-03T03:53:17.164Z,14.27
2024-02-03T03:56:04.054Z,14.40
2024-02-03T03:58:50.976Z,13.53
2024-02-03T04:01:39.316Z,14.33
2024-02-03T04:04:26.134Z,18.80
2024-02-03T04:07:12.900Z,15.17
2024-02-03T04:09:59.928Z,15.97
2024-02-03T04:12:47.021Z,13.27
2024-02-03T04:15:33.911Z,14.17
2024-02-03T04:18:22.423Z,11.90
2024-02-03T04:21:09.189Z,14.57
2024-02-03T04:23:55.974Z,14.20
2024-02-03T04:26:42.935Z,16.17
2024-02-03T04:29:30.145Z,18.50
2024-02-03T04:32:16.853Z,13.13
2024-02-03T04:35:06.317Z,18.10
2024-02-03T04:37:52.944Z,17.17
2024-02-03T04:40:39.889Z,15.43
2024-02-03T04:43:26.615Z,11.60
2024-02-03T04:46:13.891Z,10.73
2024-02-03T04:49:01.120Z,12.13
2024-02-03T04:51:49.689Z,12.10
2024-02-03T04:54:36.586Z,12.43
2024-02-03T04:57:23.344Z,15.00
2024-02-03T05:00:11.190Z,10.40
2024-02-03T05:02:57.931Z,12.93
2024-02-03T05:05:44.905Z,11.87
2024-02-03T05:08:33.488Z,9.50
2024-02-03T05:11:20.276Z,10.90
2024-02-03T05:14:07.299Z,14.80
2024-02-03T05:16:54.194Z,9.63
2024-02-03T05:19:41.133Z,9.57
2024-02-03T05:22:27.994Z,9.07
2024-02-03T05:25:17.693Z,7.90
2024-02-03T05:28:04.692Z,9.03
2024-02-03T05:30:51.612Z,7.10
2024-02-03T05:33:38.375Z,8.57
2024-02-03T05:36:25.262Z,8.53
2024-02-03T05:39:12.144Z,7.97
2024-02-03T05:42:00.368Z,7.23
2024-02-03T05:44:47.221Z,6.37
2024-02-03T05:47:34.121Z,6.70
2024-02-03T05:50:21.092Z,8.90
2024-02-03T05:53:08.890Z,5.67
2024-02-03T05:55:55.959Z,7.77
2024-02-03T05:58:45.494Z,5.57
2024-02-03T06:01:32.184Z,6.20
2024-02-03T06:04:19.165Z,6.03
2024-02-03T06:07:07.276Z,6.47
2024-02-03T06:09:54.751Z,6.70
2024-02-03T06:12:43.111Z,6.60
2024-02-03T06:15:32.269Z,5.27
2024-02-03T06:18:19.396Z,8.47
2024-02-03T06:21:06.710Z,7.47
2024-02-03T06:24:08.962Z,8.93
2024-02-03T06:26:57.945Z,5.97
2024-02-03T06:29:48.238Z,4.93
2024-02-03T06:32:37.138Z,6.20
2024-02-03T06:35:24.578Z,4.37
2024-02-03T06:38:11.975Z,5.93
2024-02-03T06:40:59.121Z,6.40
2024-02-03T06:43:47.198Z,4.90
2024-02-03T06:46:33.932Z,5.07
2024-02-03T06:49:23.115Z,4.67
2024-02-03T06:52:10.339Z,3.97
2024-02-03T06:54:57.328Z,4.73
2024-02-03T06:57:44.248Z,5.27
2024-02-03T07:00:31.144Z,4.93
2024-02-03T07:03:18.945Z,4.17
2024-02-03T07:06:07.317Z,4.07
2024-02-03T07:08:54.175Z,6.83
2024-02-03T07:11:49.593Z,3.23
2024-02-03T07:14:43.698Z,3.90
2024-02-03T07:17:30.759Z,4.03
2024-02-03T07:20:17.771Z,3.43
2024-02-03T07:23:05.989Z,5.03
2024-02-03T07:25:52.633Z,5.33
2024-02-03T07:28:39.779Z,3.40
2024-02-03T07:31:28.057Z,5.60
2024-02-03T07:34:15.023Z,6.87
2024-02-03T07:37:02.121Z,4.50
2024-02-03T07:39:50.274Z,3.70
2024-02-03T07:42:37.115Z,4.37
2024-02-03T07:45:24.177Z,6.50
2024-02-03T07:48:11.204Z,2.77
2024-02-03T07:50:57.819Z,3.17
2024-02-03T07:53:44.767Z,4.40
2024-02-03T07:56:34.146Z,3.00
2024-02-03T07:59:22.158Z,4.33
2024-02-03T08:02:09.830Z,5.87
2024-02-03T08:04:56.667Z,5.50
2024-02-03T08:07:43.737Z,4.87
2024-02-03T08:10:30.601Z,3.87
2024-02-03T08:13:18.867Z,3.70
2024-02-03T08:16:07.489Z,4.53
2024-02-03T08:18:54.414Z,4.90
2024-02-03T08:21:40.955Z,3.70
2024-02-03T08:24:27.803Z,3.10
2024-02-03T08:27:14.758Z,3.87
2024-02-03T08:30:03.063Z,3.63
2024-02-03T08:32:49.833Z,6.87
2024-02-03T08:35:36.898Z,4.63
2024-02-03T08:38:23.676Z,4.80
2024-02-03T08:41:10.801Z,5.33
2024-02-03T08:43:57.753Z,6.57
2024-02-03T08:46:46.395Z,4.97
2024-02-03T08:49:33.351Z,5.30
2024-02-03T08:52:20.266Z,4.83
2024-02-03T08:55:07.700Z,6.70
2024-02-03T08:57:54.568Z,6.00
2024-02-03T09:00:43.312Z,5.90
2024-02-03T09:03:32.704Z,4.70
2024-02-03T09:06:19.391Z,4.90
2024-02-03T09:09:07.064Z,6.80
2024-02-03T09:11:53.654Z,4.17
2024-02-03T09:14:40.842Z,5.30
2024-02-03T09:17:32.497Z,3.67
2024-02-03T09:20:25.663Z,5.57
2024-02-03T09:23:14.611Z,4.30
2024-02-03T09:26:02.790Z,4.60
2024-02-03T09:28:50.474Z,4.47
2024-02-03T09:31:37.540Z,5.47
2024-02-03T09:34:24.414Z,4.60
2024-02-03T09:40:04.951Z,4.27
2024-02-03T09:42:52.096Z,4.70
2024-02-03T09:45:39.610Z,3.83
2024-02-03T09:48:26.693Z,8.07
2024-02-03T09:51:13.979Z,5.93
2024-02-03T09:54:02.585Z,8.47
2024-02-03T09:56:49.529Z,7.03
2024-02-03T09:59:36.512Z,7.83
2024-02-03T10:02:23.495Z,4.17
2024-02-03T10:05:10.890Z,7.13
2024-02-03T10:08:02.193Z,6.77
2024-02-03T10:10:54.611Z,5.57
2024-02-03T10:13:41.064Z,5.33
2024-02-03T10:16:28.160Z,8.03
2024-02-03T10:19:15.316Z,5.60
2024-02-03T10:22:02.094Z,4.40
2024-02-03T10:24:48.947Z,9.97
2024-02-03T10:27:37.494Z,8.47
2024-02-03T10:30:24.413Z,8.13
2024-02-03T10:33:11.066Z,6.03
2024-02-03T10:35:59.132Z,5.23
2024-02-03T10:38:45.866Z,5.73
2024-02-03T10:41:37.747Z,7.43
2024-02-03T10:44:27.031Z,7.10
2024-02-03T10:47:14.151Z,7.03
2024-02-03T10:50:02.281Z,4.77
2024-02-03T10:52:51.452Z,6.40
2024-02-03T10:55:41.805Z,7.00
2024-02-03T10:58:31.338Z,5.97
2024-02-03T11:01:22.647Z,5.27
2024-02-03T11:04:09.718Z,6.77
2024-02-03T11:06:59.835Z,7.30
2024-02-03T11:09:46.733Z,8.10
2024-02-03T11:12:37.225Z,7.43
2024-02-03T11:15:24.162Z,6.73
2024-02-03T11:18:14.398Z,6.73
2024-02-03T11:21:06.994Z,8.93
2024-02-03T11:23:53.528Z,6.57
2024-02-03T11:26:41.150Z,6.57
2024-02-03T11:29:28.289Z,9.17
2024-02-03T11:32:16.117Z,9.13
2024-02-03T11:35:05.577Z,11.77
2024-02-03T11:37:52.094Z,7.17
2024-02-03T11:40:46.202Z,7.43
2024-02-03T11:43:32.880Z,14.03
2024-02-03T11:46:20.131Z,11.47
2024-02-03T11:49:06.957Z,6.93
2024-02-03T11:52:01.709Z,7.47
2024-02-03T11:54:49.479Z,9.13
2024-02-03T11:57:35.866Z,6.37
2024-02-03T12:00:22.786Z,6.47
2024-02-03T12:03:09.535Z,6.57
2024-02-03T12:05:56.584Z,7.03
2024-02-03T12:08:44.630Z,6.93
2024-02-03T12:11:31.967Z,9.73
2024-02-03T12:14:20.151Z,10.40
2024-02-03T12:17:07.912Z,9.53
2024-02-03T12:19:56.331Z,6.77
2024-02-03T12:22:43.533Z,8.13
2024-02-03T12:25:32.464Z,6.00
2024-02-03T12:28:19.681Z,8.83
2024-02-03T12:31:06.770Z,6.07
2024-02-03T12:33:53.772Z,5.37
2024-02-03T12:36:40.655Z,6.47
2024-02-03T12:39:27.639Z,5.07
2024-02-03T12:42:15.982Z,8.53
2024-02-03T12:45:02.857Z,7.70
2024-02-03T12:47:49.328Z,7.37
2024-02-03T12:50:36.209Z,6.27
2024-02-03T12:53:23.421Z,5.13
2024-02-03T12:56:10.208Z,3.97
2024-02-03T12:58:58.200Z,6.00
2024-02-03T13:01:45.150Z,2.80
2024-02-03T13:04:31.994Z,4.03
2024-02-03T13:07:18.744Z,5.20
2024-02-03T13:10:06.387Z,6.80
2024-02-03T13:12:53.072Z,4.93
2024-02-03T13:15:41.109Z,5.47
2024-02-03T13:18:28.126Z,7.87
2024-02-03T13:21:14.980Z,6.30
2024-02-03T13:24:01.856Z,9.33
2024-02-03T13:26:48.665Z,9.30
2024-02-03T13:29:38.504Z,10.23
2024-02-03T13:32:27.017Z,9.57
2024-02-03T13:35:13.977Z,8.07
2024-02-03T13:38:04.947Z,10.27
2024-02-03T13:40:52.120Z,11.67
2024-02-03T13:43:38.769Z,8.00
2024-02-03T13:46:27.104Z,8.63
2024-02-03T13:49:15.544Z,10.27
2024-02-03T13:52:02.352Z,5.63
2024-02-03T13:54:49.307Z,9.50
2024-02-03T13:57:36.123Z,8.00
2024-02-03T14:00:23.834Z,11.60
2024-02-03T14:03:10.505Z,8.73
2024-02-03T14:05:58.623Z,10.27
2024-02-03T14:08:45.510Z,8.93
2024-02-03T14:11:42.104Z,7.23
2024-02-03T14:14:37.709Z,5.57
2024-02-03T14:17:24.640Z,9.93
2024-02-03T14:20:13.787Z,8.70
2024-02-03T14:23:01.784Z,7.63
2024-02-03T14:25:48.762Z,6.27
2024-02-03T14:28:35.642Z,6.13
2024-02-03T14:31:22.665Z,8.97
2024-02-03T14:34:09.743Z,10.40
2024-02-03T14:36:56.636Z,6.87
2024-02-03T14:39:44.869Z,6.97
2024-02-03T14:42:31.576Z,4.93
2024-02-03T14:45:18.387Z,5.53
2024-02-03T14:48:05.876Z,7.97
2024-02-03T14:50:52.717Z,6.80
2024-02-03T14:53:40.431Z,4.20
2024-02-03T14:56:28.216Z,6.87
2024-02-03T14:59:15.614Z,6.47
2024-02-03T15:02:03.001Z,3.83
2024-02-03T15:04:49.476Z,4.33
2024-02-03T15:07:37.069Z,6.50
2024-02-03T15:10:23.811Z,5.93
2024-02-03T15:13:12.356Z,5.93
2024-02-03T15:15:59.127Z,5.23
2024-02-03T15:18:45.775Z,5.77
2024-02-03T15:21:32.692Z,4.97
2024-02-03T15:24:19.575Z,5.00
2024-02-03T15:27:06.339Z,5.33
2024-02-03T15:29:54.769Z,5.93
2024-02-03T15:32:41.646Z,5.63
2024-02-03T15:35:28.554Z,9.23
2024-02-03T15:38:15.410Z,4.90
2024-02-03T15:41:02.427Z,6.53
2024-02-03T15:43:49.394Z,5.50
2024-02-03T15:46:44.661Z,6.53
2024-02-03T15:49:33.432Z,5.27
2024-02-03T15:52:20.443Z,6.27
2024-02-03T15:55:08.262Z,5.60
2024-02-03T15:57:54.984Z,5.97
2024-02-03T16:00:42.203Z,6.57
2024-02-03T16:03:30.378Z,7.80
2024-02-03T16:06:17.261Z,7.07
2024-02-03T16:09:04.214Z,7.37
2024-02-03T16:11:51.174Z,7.20
2024-02-03T16:14:38.053Z,5.77
2024-02-03T16:17:25.036Z,6.57
2024-02-03T16:20:16.006Z,6.83
2024-02-03T16:23:03.863Z,8.13
2024-02-03T16:25:50.662Z,5.07
2024-02-03T16:28:40.365Z,5.37
2024-02-03T16:31:26.933Z,7.07
2024-02-03T16:34:14.039Z,6.40
2024-02-03T16:37:02.229Z,6.50
2024-02-03T16:39:48.958Z,7.63
2024-02-03T16:42:35.713Z,6.83
2024-02-03T16:45:22.799Z,7.83
2024-02-03T16:48:09.838Z,5.43
2024-02-03T16:50:56.861Z,6.93
2024-02-03T16:53:45.212Z,6.37
2024-02-03T16:56:32.275Z,6.03
2024-02-03T16:59:19.072Z,7.03
2024-02-03T17:02:06.310Z,6.03
2024-02-03T17:04:53.164Z,3.53
2024-02-03T17:07:40.086Z,4.50
2024-02-03T17:10:28.402Z,8.37
2024-02-03T17:13:15.329Z,4.87
2024-02-03T17:16:06.246Z,9.30
2024-02-03T17:18:53.644Z,3.47
2024-02-03T17:21:40.205Z,5.03
2024-02-03T17:24:27.200Z,3.77
2024-02-03T17:27:15.476Z,6.23
2024-02-03T17:30:02.284Z,3.90
2024-02-03T17:32:49.297Z,6.33
2024-02-03T17:35:36.218Z,4.37
2024-02-03T17:38:23.077Z,5.07
2024-02-03T17:41:10.526Z,6.20
2024-02-03T17:43:58.870Z,5.83
2024-02-03T17:46:45.699Z,5.80
2024-02-03T17:49:33.070Z,6.27
2024-02-03T17:52:20.272Z,8.03
2024-02-03T17:55:07.379Z,4.97
2024-02-03T17:57:53.965Z,4.60
2024-02-03T18:00:42.419Z,5.40
2024-02-03T18:03:29.254Z,6.47
2024-02-03T18:06:16.049Z,6.83
2024-02-03T18:09:03.641Z,9.27
2024-02-03T18:11:50.399Z,7.03
2024-02-03T18:14:37.384Z,9.40
2024-02-03T18:17:25.680Z,8.07
2024-02-03T18:20:16.776Z,7.27
2024-02-03T18:23:06.203Z,8.13
2024-02-03T18:25:53.168Z,9.07
2024-02-03T18:28:39.935Z,10.57
2024-02-03T18:31:26.976Z,9.37
2024-02-03T18:34:15.361Z,4.73
2024-02-03T18:37:02.161Z,8.03
2024-02-03T18:39:53.846Z,9.77
2024-02-03T18:42:44.054Z,8.50
2024-02-03T18:45:31.747Z,4.80
2024-02-03T18:48:18.778Z,3.67
2024-02-03T18:51:07.174Z,5.00
2024-02-03T18:53:53.896Z,6.77
2024-02-03T18:56:40.894Z,4.67
2024-02-03T18:59:27.743Z,7.07
2024-02-03T19:02:14.581Z,5.20
2024-02-03T19:05:02.047Z,6.30
2024-02-03T19:07:50.202Z,3.97
2024-02-03T19:10:37.048Z,4.47
2024-02-03T19:13:24.612Z,9.17
2024-02-03T19:16:11.323Z,6.53
2024-02-03T19:18:58.199Z,7.23
2024-02-03T19:21:45.087Z,5.90
2024-02-03T19:24:33.530Z,2.90
2024-02-03T19:27:21.570Z,5.33
2024-02-03T19:30:09.232Z,7.07
2024-02-03T19:32:56.376Z,5.67
2024-02-03T19:35:43.928Z,7.80
2024-02-03T19:38:30.623Z,4.37
2024-02-03T19:41:18.848Z,5.30
2024-02-03T19:44:05.866Z,6.07
2024-02-03T19:46:52.874Z,9.23
2024-02-03T19:49:39.984Z,7.67
2024-02-03T19:52:26.651Z,8.10
2024-02-03T19:55:13.561Z,9.03
2024-02-03T19:58:01.924Z,13.97
2024-02-03T20:00:48.801Z,11.97
2024-02-03T20:03:35.848Z,8.67
2024-02-03T20:06:22.792Z,10.03
2024-02-03T20:09:10.235Z,7.80
2024-02-03T20:11:56.832Z,5.13
2024-02-03T20:14:45.110Z,9.30
2024-02-03T20:17:32.028Z,4.53
2024-02-03T20:20:19.144Z,10.23
2024-02-03T20:23:06.898Z,2.73
2024-02-03T20:25:53.485Z,12.30
2024-02-03T20:28:40.914Z,5.83
2024-02-03T20:31:29.193Z,10.50
2024-02-03T20:34:18.404Z,11.80
2024-02-03T20:37:06.014Z,11.57
2024-02-03T20:39:53.023Z,7.43
2024-02-03T20:42:39.865Z,8.97
2024-02-03T20:45:26.797Z,12.13
2024-02-03T20:48:15.065Z,5.27
2024-02-03T20:51:01.934Z,11.60
2024-02-03T20:53:48.654Z,5.30
2024-02-03T20:56:35.565Z,8.97
2024-02-03T20:59:25.502Z,8.43
2024-02-03T21:02:13.337Z,6.30
2024-02-03T21:05:03.828Z,8.70
2024-02-03T21:07:55.463Z,13.13
2024-02-03T21:10:44.108Z,12.93
2024-02-03T21:13:33.370Z,9.37
2024-02-03T21:16:23.288Z,16.63
2024-02-03T21:19:12.324Z,12.47
2024-02-03T21:22:02.753Z,5.90
2024-02-03T21:24:51.769Z,6.13
2024-02-03T21:27:42.308Z,12.77
2024-02-03T21:30:31.476Z,8.13
2024-02-03T21:33:21.542Z,6.50
2024-02-03T21:36:14.011Z,13.37
2024-02-03T21:39:05.714Z,9.17
2024-02-03T21:41:53.534Z,12.40
2024-02-03T21:44:47.865Z,16.20
2024-02-03T21:47:36.148Z,10.73
2024-02-03T21:50:24.417Z,7.97
2024-02-03T21:53:12.602Z,9.70
2024-02-03T21:56:01.523Z,7.10
2024-02-03T21:58:50.139Z,16.87
2024-02-03T22:01:38.550Z,13.23
2024-02-03T22:04:27.073Z,9.50
2024-02-03T22:07:18.977Z,11.70
2024-02-03T22:10:10.830Z,7.20
2024-02-03T22:13:00.801Z,10.10
2024-02-03T22:15:51.012Z,7.73
2024-02-03T22:18:40.882Z,14.67
2024-02-03T22:21:28.855Z,11.73
2024-02-03T22:24:18.062Z,6.93
2024-02-03T22:27:08.243Z,9.67
2024-02-03T22:29:59.572Z,18.13
2024-02-03T22:32:48.991Z,7.97
2024-02-03T22:35:38.697Z,7.30
2024-02-03T22:38:28.879Z,10.53
2024-02-03T22:41:16.530Z,7.87
2024-02-03T22:44:05.270Z,10.40
2024-02-03T22:46:55.843Z,11.20
2024-02-03T22:49:44.753Z,13.97
2024-02-03T22:52:34.315Z,6.80
2024-02-03T22:55:24.221Z,11.40
2024-02-03T22:58:12.397Z,11.50
2024-02-03T23:01:02.754Z,12.03
2024-02-03T23:03:54.130Z,9.50
2024-02-03T23:06:44.644Z,7.77
2024-02-03T23:09:35.985Z,7.13
2024-02-03T23:12:27.523Z,8.63
2024-02-03T23:15:20.153Z,18.13
2024-02-03T23:18:09.096Z,5.13
2024-02-03T23:21:00.038Z,8.50
2024-02-03T23:23:49.448Z,4.80
2024-02-03T23:26:36.957Z,17.57
2024-02-03T23:29:23.644Z,6.77
2024-02-03T23:32:14.568Z,7.00
2024-02-03T23:35:01.895Z,13.17
2024-02-03T23:37:49.849Z,6.07
2024-02-03T23:40:36.792Z,5.13
2024-02-03T23:43:23.693Z,5.83
2024-02-03T23:46:10.662Z,4.20
2024-02-03T23:48:57.538Z,7.50
2024-02-03T23:51:44.331Z,9.47
2024-02-03T23:54:32.610Z,12.73
2024-02-03T23:57:19.450Z,13.43
